Aérodrome :
LOGIN :

S'inscrire | Disclaimer

   EN    FR    IT 

 










Légende :    VFR   VFR Marginal   IFR   IFR Intensif   IFR Très Intensif
Visi : 
Plafond : 
>= 8 km
>= 3000ft
5 à 8 km
1000 à 3000 ft
1500m à 5 km
500 à 1000 ft
800 à 1500m
200 à 500 ft
< 800m
< 200 ft
Symboles :   Orages  Brouillard  Fortes neiges  Fortes précipitations  Vent > 20 kt
SIGMETs :   Divers  Orages  Givrage  Turbulence  Onde Orograph.  Cendres Volcan.







- Altitude de l'aérodrome : 247 ft
- Code IATA : BLL


EKBI - Billund

DERNIER METAR :
  • 172050Z AUTO 28008KT 230V320 9999 NCD 08/05 Q1016

METARs EXPIRÉS :
  • 172020Z AUTO 29008KT 9999 NCD 08/05 Q1015
  • 171950Z AUTO 29009KT 9999 NCD 08/05 Q1015
  • 171920Z AUTO 29010KT 9999 NCD 09/05 Q1014
  • 171850Z AUTO 29010KT 9999 NCD 09/05 Q1014
  • 171820Z AUTO 29010KT 9999 NCD 09/05 Q1013

TAF TAF EKBI
Valide du 17 à 18h jusqu'au 18 à 18h UTC


171716Z 1718/1818 30012KT 9999 SCT030
TEMPO 1812/1818 31015G25KT FEW030CB
Pas de NOTAMs connus pour ce terrain.



MET'MAP, la Météo Aéronautique d'un coup d'oeil ! - Copyright ORBIFLY Décembre 2007 - Disclaimer

ORBIFLY MET'MAP TEAM :

Programmation & Développement : Alexandra Zaïnal
Conception & Développement : Baudouin d'Aumeries
Co-Programmation & Développement : Marc-Olivier Méhu
Soutien technique & logistique : Manuel Goepfert

Contact : metmap@orbifly.com




SOURCES & CREDITS :

   NOAA